createdAt,value
2018-04-28T00:02:14.772Z,101345.38
2018-04-28T00:05:18.200Z,101344.50
2018-04-28T00:08:21.548Z,101346.95
2018-04-28T00:11:24.847Z,101350.28
2018-04-28T00:14:28.299Z,101346.41
2018-04-28T00:17:33.085Z,101351.47
2018-04-28T00:20:36.682Z,101349.93
2018-04-28T00:23:42.148Z,101351.05
2018-04-28T00:26:45.529Z,101350.04
2018-04-28T00:29:48.821Z,101350.26
2018-04-28T00:32:52.362Z,101350.73
2018-04-28T00:35:55.831Z,101350.05
2018-04-28T00:38:59.596Z,101353.73
2018-04-28T00:42:02.931Z,101354.34
2018-04-28T00:45:06.387Z,101353.38
2018-04-28T00:48:09.740Z,101355.36
2018-04-28T00:51:14.490Z,101356.97
2018-04-28T00:54:17.703Z,101362.40
2018-04-28T00:57:23.467Z,101359.94
2018-04-28T01:00:27.277Z,101361.74
2018-04-28T01:03:30.765Z,101358.97
2018-04-28T01:06:35.136Z,101363.29
2018-04-28T01:09:38.386Z,101363.42
2018-04-28T01:12:41.699Z,101365.34
2018-04-28T01:15:45.178Z,101358.81
2018-04-28T01:18:49.783Z,101361.17
2018-04-28T01:21:53.268Z,101368.19
2018-04-28T01:24:57.408Z,101373.70
2018-04-28T01:28:01.098Z,101361.98
2018-04-28T01:31:04.511Z,101370.86
2018-04-28T01:34:07.822Z,101371.63
2018-04-28T01:37:11.703Z,101373.64
2018-04-28T01:40:15.012Z,101371.88
2018-04-28T01:43:18.544Z,101380.13
2018-04-28T01:46:21.901Z,101385.31
2018-04-28T01:49:27.280Z,101386.27
2018-04-28T01:52:31.112Z,101382.59
2018-04-28T01:55:34.488Z,101383.27
2018-04-28T01:58:38.984Z,101382.81
2018-04-28T02:01:42.705Z,101393.01
2018-04-28T02:04:47.347Z,101402.08
2018-04-28T02:07:50.733Z,101405.23
2018-04-28T02:10:54.387Z,101408.92
2018-04-28T02:13:57.676Z,101414.73
2018-04-28T02:17:01.026Z,101411.17
2018-04-28T02:20:04.424Z,101419.94
2018-04-28T02:23:07.933Z,101421.30
2018-04-28T02:26:12.051Z,101431.98
2018-04-28T02:29:15.678Z,101429.07
2018-04-28T02:32:19.029Z,101437.15
2018-04-28T02:35:22.440Z,101445.96
2018-04-28T02:38:25.749Z,101450.03
2018-04-28T02:41:29.256Z,101452.13
2018-04-28T02:44:33.146Z,101451.82
2018-04-28T02:47:36.655Z,101452.02
2018-04-28T02:50:40.168Z,101450.01
2018-04-28T02:53:43.640Z,101453.45
2018-04-28T02:56:52.008Z,101458.02
2018-04-28T02:59:55.489Z,101461.46
2018-04-28T03:02:59.016Z,101456.14
2018-04-28T03:06:02.692Z,101452.73
2018-04-28T03:09:06.313Z,101457.73
2018-04-28T03:12:09.696Z,101459.02
2018-04-28T03:15:13.009Z,101459.97
2018-04-28T03:18:17.563Z,101468.85
2018-04-28T03:21:20.964Z,101478.53
2018-04-28T03:24:24.511Z,101481.32
2018-04-28T03:27:31.112Z,101489.62
2018-04-28T03:30:35.242Z,101485.39
2018-04-28T03:33:38.613Z,101491.26
2018-04-28T03:36:42.216Z,101494.92
2018-04-28T03:39:46.040Z,101492.98
2018-04-28T03:42:49.396Z,101497.20
2018-04-28T03:45:53.320Z,101502.69
2018-04-28T03:48:56.528Z,101503.57
2018-04-28T03:51:59.825Z,101507.32
2018-04-28T03:55:03.137Z,101506.93
2018-04-28T03:58:17.749Z,101506.20
2018-04-28T04:02:35.333Z,101514.03
2018-04-28T04:05:39.016Z,101522.69
2018-04-28T04:08:42.636Z,101523.87
2018-04-28T04:11:46.861Z,101529.07
2018-04-28T04:14:50.161Z,101539.14
2018-04-28T04:17:53.510Z,101537.37
2018-04-28T04:20:57.274Z,101538.52
2018-04-28T04:24:02.157Z,101543.99
2018-04-28T04:27:06.271Z,101540.88
2018-04-28T04:30:10.707Z,101542.86
2018-04-28T04:33:14.137Z,101544.01
2018-04-28T04:36:17.640Z,101542.86
2018-04-28T04:39:24.012Z,101539.14
2018-04-28T04:42:28.334Z,101538.73
2018-04-28T04:45:31.681Z,101542.51
2018-04-28T04:48:36.238Z,101544.45
2018-04-28T04:51:39.550Z,101549.75
2018-04-28T04:54:43.008Z,101550.69
2018-04-28T04:57:47.121Z,101553.37
2018-04-28T05:00:50.933Z,101555.15
2018-04-28T05:03:55.199Z,101558.84
2018-04-28T05:06:59.600Z,101563.46
2018-04-28T05:10:03.122Z,101562.85
2018-04-28T05:13:06.474Z,101575.59
2018-04-28T05:16:10.126Z,101575.12
2018-04-28T05:19:18.230Z,101570.14
2018-04-28T05:22:22.559Z,101581.04
2018-04-28T05:25:33.304Z,101588.93
2018-04-28T05:28:40.945Z,101589.60
2018-04-28T05:31:46.241Z,101590.08
2018-04-28T05:34:50.352Z,101589.93
2018-04-28T05:37:54.031Z,101585.17
2018-04-28T05:41:00.617Z,101584.38
2018-04-28T05:44:04.484Z,101586.58
2018-04-28T05:47:08.075Z,101590.20
2018-04-28T05:50:11.381Z,101597.75
2018-04-28T05:53:15.868Z,101609.24
2018-04-28T05:56:19.432Z,101613.59
2018-04-28T05:59:22.723Z,101617.96
2018-04-28T06:02:26.010Z,101626.63
2018-04-28T06:05:29.388Z,101631.47
2018-04-28T06:08:33.212Z,101628.89
2018-04-28T06:11:39.392Z,101631.03
2018-04-28T06:14:48.388Z,101647.16
2018-04-28T06:17:54.188Z,101646.91
2018-04-28T06:20:57.517Z,101634.62
2018-04-28T06:24:00.871Z,101637.49
2018-04-28T06:27:04.196Z,101638.68
2018-04-28T06:30:07.823Z,101637.03
2018-04-28T06:33:11.218Z,101639.83
2018-04-28T06:36:14.573Z,101639.57
2018-04-28T06:39:17.784Z,101642.62
2018-04-28T06:42:21.176Z,101646.34
2018-04-28T06:45:24.568Z,101646.06
2018-04-28T06:48:27.892Z,101646.76
2018-04-28T06:51:31.169Z,101641.39
2018-04-28T06:54:34.532Z,101640.43
2018-04-28T06:57:37.850Z,101645.56
2018-04-28T07:00:41.163Z,101643.01
2018-04-28T07:03:44.461Z,101646.86
2018-04-28T07:06:47.903Z,101650.72
2018-04-28T07:09:51.048Z,101654.27
2018-04-28T07:12:54.471Z,101643.92
2018-04-28T07:15:57.848Z,101641.52
2018-04-28T07:19:01.113Z,101635.43
2018-04-28T07:22:04.539Z,101639.37
2018-04-28T07:25:07.865Z,101634.95
2018-04-28T07:28:11.126Z,101633.84
2018-04-28T07:31:14.579Z,101627.34
2018-04-28T07:34:17.944Z,101626.77
2018-04-28T07:37:21.234Z,101624.76
2018-04-28T07:40:24.461Z,101621.06
2018-04-28T07:43:27.776Z,101615.66
2018-04-28T07:46:31.127Z,101621.59
2018-04-28T07:49:34.319Z,101618.42
2018-04-28T07:52:37.597Z,101621.46
2018-04-28T07:55:40.912Z,101619.67
2018-04-28T07:58:44.198Z,101617.18
2018-04-28T08:01:47.609Z,101605.97
2018-04-28T08:04:50.993Z,101612.89
2018-04-28T08:07:54.329Z,101604.48
2018-04-28T08:10:57.513Z,101597.57
2018-04-28T08:14:00.835Z,101607.48
2018-04-28T08:17:04.207Z,101607.74
2018-04-28T08:20:07.603Z,101609.63
2018-04-28T08:23:10.990Z,101609.55
2018-04-28T08:26:14.231Z,101610.98
2018-04-28T08:29:17.488Z,101617.50
2018-04-28T08:32:21.235Z,101617.92
2018-04-28T08:35:24.506Z,101619.41
2018-04-28T08:38:27.796Z,101628.91
2018-04-28T08:41:31.120Z,101628.95
2018-04-28T08:44:34.420Z,101628.43
2018-04-28T08:47:37.788Z,101625.59
2018-04-28T08:50:41.215Z,101626.81
2018-04-28T08:53:44.557Z,101629.10
2018-04-28T08:56:47.867Z,101626.97
2018-04-28T09:00:02.727Z,101625.12
2018-04-28T09:03:06.410Z,101625.31
2018-04-28T09:06:09.752Z,101620.21
2018-04-28T09:09:13.112Z,101613.65
2018-04-28T09:12:16.251Z,101613.21
2018-04-28T09:15:20.479Z,101605.71
2018-04-28T09:18:23.845Z,101613.03
2018-04-28T09:21:27.645Z,101613.36
2018-04-28T09:24:31.497Z,101612.98
2018-04-28T09:27:35.696Z,101613.66
2018-04-28T09:30:40.019Z,101604.62
2018-04-28T09:33:43.203Z,101604.66
2018-04-28T09:36:46.508Z,101595.49
2018-04-28T09:39:49.827Z,101599.56
2018-04-28T09:42:53.714Z,101595.96
2018-04-28T09:45:57.136Z,101598.85
2018-04-28T09:49:00.444Z,101598.66
2018-04-28T09:52:03.820Z,101594.44
2018-04-28T09:55:07.490Z,101583.89
2018-04-28T09:58:10.611Z,101580.10
2018-04-28T10:01:18.351Z,101583.05
2018-04-28T10:04:24.954Z,101574.90
2018-04-28T10:07:32.795Z,101570.98
2018-04-28T10:10:37.390Z,101573.05
2018-04-28T10:13:40.635Z,101565.59
2018-04-28T10:16:49.343Z,101564.80
2018-04-28T10:19:52.735Z,101552.45
2018-04-28T10:22:55.940Z,101543.93
2018-04-28T10:25:59.334Z,101542.14
2018-04-28T10:29:02.734Z,101542.57
2018-04-28T10:32:06.038Z,101542.57
2018-04-28T10:35:09.691Z,101540.78
2018-04-28T10:38:13.271Z,101537.01
2018-04-28T10:41:16.511Z,101534.84
2018-04-28T10:44:20.038Z,101532.56
2018-04-28T10:47:24.033Z,101538.19
2018-04-28T10:50:27.399Z,101529.88
2018-04-28T10:53:31.974Z,101521.52
2018-04-28T10:56:35.581Z,101523.64
2018-04-28T10:59:38.816Z,101517.81
2018-04-28T11:02:42.013Z,101509.90
2018-04-28T11:05:45.341Z,101504.62
2018-04-28T11:08:50.240Z,101509.67
2018-04-28T11:11:53.532Z,101508.99
2018-04-28T11:14:56.863Z,101510.48
2018-04-28T11:18:00.830Z,101507.43
2018-04-28T11:21:04.398Z,101501.15
2018-04-28T11:24:08.590Z,101498.56
2018-04-28T11:27:11.922Z,101516.73
2018-04-28T11:30:15.252Z,101511.64
2018-04-28T11:33:18.427Z,101506.70
2018-04-28T11:36:21.916Z,101510.62
2018-04-28T11:39:25.323Z,101502.50
2018-04-28T11:42:28.681Z,101498.45
2018-04-28T11:45:31.963Z,101495.73
2018-04-28T11:48:35.344Z,101491.55
2018-04-28T11:51:38.920Z,101494.22
2018-04-28T11:54:42.141Z,101488.73
2018-04-28T11:57:45.528Z,101486.45
2018-04-28T12:00:48.852Z,101488.09
2018-04-28T12:03:52.162Z,101492.35
2018-04-28T12:06:55.696Z,101486.16
2018-04-28T12:09:59.028Z,101477.14
2018-04-28T12:13:02.189Z,101482.93
2018-04-28T12:16:05.491Z,101480.40
2018-04-28T12:19:08.762Z,101468.02
2018-04-28T12:22:12.121Z,101464.77
2018-04-28T12:25:15.266Z,101458.18
2018-04-28T12:28:18.613Z,101458.66
2018-04-28T12:31:21.904Z,101441.54
2018-04-28T12:34:25.240Z,101431.32
2018-04-28T12:37:29.455Z,101428.98
2018-04-28T12:40:32.651Z,101419.79
2018-04-28T12:43:36.004Z,101410.99
2018-04-28T12:46:39.298Z,101413.95
2018-04-28T12:49:42.547Z,101411.72
2018-04-28T12:52:45.904Z,101395.67
2018-04-28T12:55:49.281Z,101389.39
2018-04-28T12:58:52.599Z,101393.11
2018-04-28T13:01:55.862Z,101385.61
2018-04-28T13:04:59.251Z,101379.92
2018-04-28T13:08:02.586Z,101381.90
2018-04-28T13:11:05.952Z,101374.20
2018-04-28T13:14:09.309Z,101374.34
2018-04-28T13:17:12.503Z,101371.42
2018-04-28T13:20:16.807Z,101365.17
2018-04-28T13:23:21.274Z,101364.39
2018-04-28T13:26:24.638Z,101368.22
2018-04-28T13:29:27.936Z,101355.76
2018-04-28T13:32:31.361Z,101347.54
2018-04-28T13:35:34.737Z,101343.81
2018-04-28T13:38:38.179Z,101338.98
2018-04-28T13:41:41.473Z,101325.87
2018-04-28T13:44:44.833Z,101319.33
2018-04-28T13:47:48.128Z,101319.28
2018-04-28T13:50:51.428Z,101311.63
2018-04-28T13:53:54.816Z,101311.69
2018-04-28T13:56:58.139Z,101311.38
2018-04-28T14:00:01.429Z,101307.09
2018-04-28T14:03:04.874Z,101301.48
2018-04-28T14:06:08.346Z,101301.59
2018-04-28T14:09:11.569Z,101294.56
2018-04-28T14:12:15.005Z,101286.94
2018-04-28T14:15:18.422Z,101297.32
2018-04-28T14:18:21.613Z,101297.93
2018-04-28T14:21:24.950Z,101290.80
2018-04-28T14:24:28.344Z,101295.59
2018-04-28T14:27:31.748Z,101285.29
2018-04-28T14:30:35.311Z,101281.89
2018-04-28T14:33:38.816Z,101286.55
2018-04-28T14:36:42.099Z,101280.00
2018-04-28T14:39:45.235Z,101276.66
2018-04-28T14:42:48.584Z,101279.13
2018-04-28T14:45:51.999Z,101285.35
2018-04-28T14:48:55.292Z,101279.97
2018-04-28T14:51:58.640Z,101275.05
2018-04-28T14:55:01.979Z,101274.64
2018-04-28T14:58:05.323Z,101275.10
2018-04-28T15:01:08.747Z,101271.09
2018-04-28T15:04:12.513Z,101269.87
2018-04-28T15:07:16.468Z,101263.86
2018-04-28T15:10:19.764Z,101264.57
2018-04-28T15:13:22.896Z,101270.53
2018-04-28T15:16:28.166Z,101265.39
2018-04-28T15:19:31.461Z,101262.39
2018-04-28T15:22:35.823Z,101260.96
2018-04-28T15:25:39.366Z,101265.50
2018-04-28T15:28:42.816Z,101263.36
2018-04-28T15:31:47.243Z,101265.47
2018-04-28T15:34:50.649Z,101259.81
2018-04-28T15:37:54.055Z,101262.57
2018-04-28T15:40:59.489Z,101266.88
2018-04-28T15:44:02.870Z,101260.13
2018-04-28T15:47:06.215Z,101257.88
2018-04-28T15:50:09.426Z,101260.67
2018-04-28T15:53:12.744Z,101265.79
2018-04-28T15:56:16.052Z,101261.47
2018-04-28T15:59:19.237Z,101258.25
2018-04-28T16:02:22.614Z,101252.01
2018-04-28T16:05:26.001Z,101247.94
2018-04-28T16:08:29.301Z,101243.67
2018-04-28T16:11:32.549Z,101251.15
2018-04-28T16:14:35.935Z,101252.22
2018-04-28T16:17:39.277Z,101250.76
2018-04-28T16:20:42.775Z,101250.50
2018-04-28T16:23:46.933Z,101242.98
2018-04-28T16:26:51.565Z,101235.58
2018-04-28T16:29:54.970Z,101234.85
2018-04-28T16:32:58.312Z,101228.08
2018-04-28T16:36:01.700Z,101229.15
2018-04-28T16:39:05.635Z,101229.30
2018-04-28T16:42:08.983Z,101236.49
2018-04-28T16:45:12.371Z,101233.63
2018-04-28T16:48:15.647Z,101232.38
2018-04-28T16:51:18.959Z,101233.24
2018-04-28T16:54:22.462Z,101233.07
2018-04-28T16:57:25.800Z,101234.62
2018-04-28T17:00:29.168Z,101229.47
2018-04-28T17:03:32.510Z,101227.18
2018-04-28T17:06:35.854Z,101229.39
2018-04-28T17:09:39.006Z,101231.83
2018-04-28T17:12:42.415Z,101245.52
2018-04-28T17:15:45.786Z,101246.10
2018-04-28T17:18:49.180Z,101240.79
2018-04-28T17:21:52.675Z,101246.00
2018-04-28T17:24:56.083Z,101249.00
2018-04-28T17:27:59.282Z,101247.74
2018-04-28T17:31:02.468Z,101250.44
2018-04-28T17:34:05.777Z,101262.07
2018-04-28T17:37:09.127Z,101262.99
2018-04-28T17:40:12.491Z,101266.76
2018-04-28T17:43:15.906Z,101269.95
2018-04-28T17:46:21.355Z,101270.72
2018-04-28T17:49:24.704Z,101266.90
2018-04-28T17:52:28.092Z,101251.06
2018-04-28T17:55:37.439Z,101243.96
2018-04-28T17:58:41.116Z,101258.97
2018-04-28T18:01:44.641Z,101241.84
2018-04-28T18:04:48.122Z,101237.84
2018-04-28T18:07:51.605Z,101244.09
2018-04-28T18:10:56.084Z,101241.33
2018-04-28T18:13:59.634Z,101229.40
2018-04-28T18:17:03.181Z,101227.71
2018-04-28T18:20:06.480Z,101229.27
2018-04-28T18:23:10.172Z,101234.73
2018-04-28T18:26:13.368Z,101241.82
2018-04-28T18:29:16.747Z,101254.14
2018-04-28T18:32:20.579Z,101266.89
2018-04-28T18:35:24.266Z,101271.05
2018-04-28T18:38:27.927Z,101273.79
2018-04-28T18:41:31.594Z,101284.43
2018-04-28T18:44:35.076Z,101283.33
2018-04-28T18:47:38.465Z,101283.47
2018-04-28T18:50:41.993Z,101273.96
2018-04-28T18:53:45.409Z,101276.71
2018-04-28T18:56:48.858Z,101291.78
2018-04-28T18:59:53.010Z,101294.90
2018-04-28T19:02:57.753Z,101294.66
2018-04-28T19:06:01.434Z,101305.67
2018-04-28T19:09:05.529Z,101297.22
2018-04-28T19:12:09.059Z,101292.33
2018-04-28T19:15:12.696Z,101297.89
2018-04-28T19:18:17.310Z,101304.91
2018-04-28T19:21:20.500Z,101312.93
2018-04-28T19:24:23.889Z,101326.08
2018-04-28T19:27:27.161Z,101339.58
2018-04-28T19:30:31.463Z,101348.35
2018-04-28T19:33:34.860Z,101349.66
2018-04-28T19:36:38.045Z,101365.69
2018-04-28T19:39:41.469Z,101366.23
2018-04-28T19:42:46.272Z,101362.85
2018-04-28T19:45:50.228Z,101354.87
2018-04-28T19:48:53.537Z,101340.06
2018-04-28T19:51:57.880Z,101340.98
2018-04-28T19:55:01.104Z,101373.51
2018-04-28T19:58:04.478Z,101387.42
2018-04-28T20:01:07.669Z,101382.71
2018-04-28T20:04:11.124Z,101388.88
2018-04-28T20:07:14.549Z,101395.09
2018-04-28T20:10:18.992Z,101392.46
2018-04-28T20:13:24.469Z,101394.04
2018-04-28T20:16:27.816Z,101409.35
2018-04-28T20:19:32.111Z,101424.28
2018-04-28T20:22:46.811Z,101437.34
2018-04-28T20:25:50.236Z,101464.41
2018-04-28T20:28:53.468Z,101474.07
2018-04-28T20:31:56.740Z,101486.66
2018-04-28T20:35:00.648Z,101493.16
2018-04-28T20:38:04.036Z,101495.67
2018-04-28T20:41:07.553Z,101502.67
2018-04-28T20:44:10.855Z,101502.03
2018-04-28T20:47:14.132Z,101477.01
2018-04-28T20:50:17.711Z,101457.05
2018-04-28T20:53:20.924Z,101460.06
2018-04-28T20:56:24.366Z,101403.55
2018-04-28T20:59:27.721Z,101409.04
2018-04-28T21:02:31.781Z,101382.30
2018-04-28T21:05:35.057Z,101364.76
2018-04-28T21:08:38.494Z,101375.21
2018-04-28T21:11:41.868Z,101396.15
2018-04-28T21:14:46.269Z,101394.25
2018-04-28T21:17:49.592Z,101411.87
2018-04-28T21:20:52.983Z,101423.38
2018-04-28T21:23:56.259Z,101433.27
2018-04-28T21:27:00.256Z,101406.27
2018-04-28T21:30:03.536Z,101401.77
2018-04-28T21:33:06.919Z,101413.32
2018-04-28T21:36:16.551Z,101431.72
2018-04-28T21:39:19.838Z,101415.20
2018-04-28T21:42:23.230Z,101388.30
2018-04-28T21:45:26.937Z,101365.99
2018-04-28T21:48:31.577Z,101372.96
2018-04-28T21:51:34.880Z,101384.84
2018-04-28T21:54:38.211Z,101407.74
2018-04-28T21:57:41.564Z,101407.29
2018-04-28T22:00:44.943Z,101401.69
2018-04-28T22:03:48.251Z,101403.11
2018-04-28T22:06:51.652Z,101392.85
2018-04-28T22:09:54.902Z,101400.99
2018-04-28T22:12:58.952Z,101401.20
2018-04-28T22:16:02.776Z,101407.05
2018-04-28T22:19:06.071Z,101399.23
2018-04-28T22:22:09.392Z,101394.06
2018-04-28T22:25:12.772Z,101399.25
2018-04-28T22:28:16.038Z,101383.97
2018-04-28T22:31:19.368Z,101372.31
2018-04-28T22:34:22.747Z,101388.55
2018-04-28T22:37:25.991Z,101388.47
2018-04-28T22:40:30.359Z,101394.09
2018-04-28T22:43:33.683Z,101391.57
2018-04-28T22:46:36.971Z,101382.64
2018-04-28T22:49:40.173Z,101376.60
2018-04-28T22:52:43.568Z,101382.01
2018-04-28T22:55:46.812Z,101390.08
2018-04-28T22:58:50.157Z,101382.65
2018-04-28T23:01:53.473Z,101390.94
2018-04-28T23:04:56.890Z,101405.40
2018-04-28T23:08:01.020Z,101413.33
2018-04-28T23:11:04.395Z,101393.16
2018-04-28T23:14:07.687Z,101398.51
2018-04-28T23:17:11.083Z,101369.06
2018-04-28T23:20:14.463Z,101357.31
2018-04-28T23:23:17.804Z,101376.88
2018-04-28T23:26:21.128Z,101371.88
2018-04-28T23:29:24.475Z,101380.45
2018-04-28T23:32:27.780Z,101385.78
2018-04-28T23:35:32.284Z,101375.78
2018-04-28T23:38:35.620Z,101371.33
2018-04-28T23:41:38.976Z,101382.77
2018-04-28T23:44:42.285Z,101379.28
2018-04-28T23:47:45.673Z,101364.81
2018-04-28T23:50:48.992Z,101359.98
2018-04-28T23:53:52.391Z,101359.67
2018-04-28T23:56:55.685Z,101354.28
2018-04-28T23:59:59.574Z,101346.72
